createdAt,value
2022-08-31T00:02:44.620Z,20.40
2022-08-31T00:07:28.792Z,20.40
2022-08-31T00:12:12.290Z,20.30
2022-08-31T00:16:57.485Z,20.20
2022-08-31T00:21:41.507Z,20.10
2022-08-31T00:26:28.310Z,20.10
2022-08-31T00:31:12.200Z,20.00
2022-08-31T00:35:57.062Z,19.90
2022-08-31T00:40:44.566Z,19.90
2022-08-31T00:45:28.780Z,19.80
2022-08-31T00:50:14.711Z,19.80
2022-08-31T00:55:03.037Z,19.70
2022-08-31T00:59:47.964Z,19.70
2022-08-31T01:04:31.825Z,19.70
2022-08-31T01:09:15.964Z,19.70
2022-08-31T01:14:01.723Z,19.70
2022-08-31T01:18:47.166Z,19.60
2022-08-31T01:23:36.367Z,19.60
2022-08-31T01:28:20.165Z,19.60
2022-08-31T01:33:04.212Z,19.60
2022-08-31T01:37:48.057Z,19.50
2022-08-31T01:42:34.731Z,19.50
2022-08-31T01:47:18.648Z,19.50
2022-08-31T01:52:05.644Z,19.50
2022-08-31T01:56:50.589Z,19.50
2022-08-31T02:01:37.459Z,19.40
2022-08-31T02:06:20.914Z,19.40
2022-08-31T02:11:04.633Z,19.40
2022-08-31T02:15:48.240Z,19.40
2022-08-31T02:20:33.349Z,19.30
2022-08-31T02:25:18.060Z,19.30
2022-08-31T02:30:01.559Z,19.30
2022-08-31T02:34:46.299Z,19.30
2022-08-31T02:39:31.166Z,19.30
2022-08-31T02:44:14.624Z,19.40
2022-08-31T02:48:58.303Z,19.40
2022-08-31T02:53:41.833Z,19.40
2022-08-31T02:58:26.726Z,19.30
2022-08-31T03:03:10.271Z,19.20
2022-08-31T03:07:53.958Z,19.30
2022-08-31T03:12:37.966Z,19.30
2022-08-31T03:17:22.922Z,19.30
2022-08-31T03:22:06.495Z,19.30
2022-08-31T03:26:50.012Z,19.40
2022-08-31T03:31:34.176Z,19.20
2022-08-31T03:36:19.348Z,19.00
2022-08-31T03:41:03.807Z,18.80
2022-08-31T03:45:47.446Z,18.70
2022-08-31T03:50:30.943Z,18.60
2022-08-31T03:55:15.812Z,18.50
2022-08-31T04:00:00.724Z,18.40
2022-08-31T04:04:44.464Z,18.10
2022-08-31T04:09:27.963Z,18.10
2022-08-31T04:14:15.336Z,18.10
2022-08-31T04:18:59.074Z,18.10
2022-08-31T04:23:43.039Z,18.10
2022-08-31T04:28:26.594Z,18.00
2022-08-31T04:33:11.813Z,18.00
2022-08-31T04:37:56.089Z,17.80
2022-08-31T04:42:39.508Z,17.70
2022-08-31T04:47:23.005Z,17.80
2022-08-31T04:52:08.533Z,17.80
2022-08-31T04:56:52.837Z,17.80
2022-08-31T05:01:42.842Z,17.70
2022-08-31T05:06:30.293Z,17.60
2022-08-31T05:11:19.043Z,17.60
2022-08-31T05:16:06.089Z,17.60
2022-08-31T05:20:49.633Z,17.60
2022-08-31T05:25:33.381Z,17.60
2022-08-31T05:30:22.407Z,17.60
2022-08-31T05:35:06.707Z,17.60
2022-08-31T05:39:51.943Z,17.60
2022-08-31T05:44:36.150Z,17.50
2022-08-31T05:49:20.944Z,17.50
2022-08-31T05:54:04.762Z,17.50
2022-08-31T05:58:50.560Z,17.50
2022-08-31T06:03:34.001Z,17.50
2022-08-31T06:08:19.027Z,17.50
2022-08-31T06:13:11.293Z,17.50
2022-08-31T06:17:55.188Z,17.50
2022-08-31T06:22:39.506Z,17.60
2022-08-31T06:27:27.154Z,17.70
2022-08-31T06:32:13.132Z,17.80
2022-08-31T06:36:56.678Z,18.00
2022-08-31T06:41:41.867Z,18.00
2022-08-31T06:46:27.030Z,18.10
2022-08-31T06:51:14.437Z,18.10
2022-08-31T06:55:58.014Z,18.20
2022-08-31T07:00:43.105Z,18.30
2022-08-31T07:05:28.000Z,18.30
2022-08-31T07:10:12.117Z,18.40
2022-08-31T07:14:55.669Z,18.50
2022-08-31T07:19:41.421Z,18.60
2022-08-31T07:24:33.503Z,18.70
2022-08-31T07:29:21.200Z,18.80
2022-08-31T07:34:08.284Z,18.80
2022-08-31T07:39:15.325Z,18.70
2022-08-31T07:44:00.242Z,18.60
2022-08-31T07:48:43.708Z,18.70
2022-08-31T07:53:27.160Z,18.60
2022-08-31T07:58:17.601Z,18.60
2022-08-31T08:03:08.069Z,18.70
2022-08-31T08:07:54.891Z,18.70
2022-08-31T08:12:38.915Z,18.70
2022-08-31T08:17:22.418Z,18.70
2022-08-31T08:22:07.367Z,18.60
2022-08-31T08:26:54.471Z,18.50
2022-08-31T08:31:38.713Z,18.30
2022-08-31T08:36:22.487Z,18.30
2022-08-31T08:41:13.017Z,18.20
2022-08-31T08:45:57.371Z,18.10
2022-08-31T08:50:42.885Z,18.10
2022-08-31T08:55:37.231Z,18.10
2022-08-31T09:00:25.601Z,18.20
2022-08-31T09:05:25.314Z,18.30
2022-08-31T09:10:19.534Z,18.40
2022-08-31T09:15:36.958Z,18.50
2022-08-31T09:20:20.645Z,18.60
2022-08-31T09:25:04.644Z,18.70
2022-08-31T09:29:54.301Z,18.80
2022-08-31T09:34:42.116Z,19.00
2022-08-31T09:39:36.986Z,19.20
2022-08-31T09:44:31.995Z,19.20
2022-08-31T09:49:22.057Z,19.40
2022-08-31T09:54:26.611Z,19.70
2022-08-31T09:59:13.669Z,19.70
2022-08-31T10:04:17.296Z,19.70
2022-08-31T10:09:04.184Z,19.70
2022-08-31T10:13:57.386Z,19.60
2022-08-31T10:18:51.014Z,19.60
2022-08-31T10:23:42.358Z,19.60
2022-08-31T10:28:33.805Z,19.80
2022-08-31T10:33:23.928Z,20.10
2022-08-31T10:38:21.399Z,20.30
2022-08-31T10:43:17.094Z,20.20
2022-08-31T10:48:05.205Z,20.40
2022-08-31T10:53:02.472Z,20.50
2022-08-31T10:57:54.441Z,20.40
2022-08-31T11:02:46.523Z,20.30
2022-08-31T11:07:43.414Z,20.00
2022-08-31T11:12:42.640Z,20.00
2022-08-31T11:17:57.688Z,19.80
2022-08-31T11:23:08.561Z,19.70
2022-08-31T11:27:56.886Z,20.00
2022-08-31T11:32:46.029Z,20.10
2022-08-31T11:37:56.142Z,20.20
2022-08-31T11:42:57.997Z,20.00
2022-08-31T11:47:44.470Z,19.60
2022-08-31T11:52:53.827Z,19.50
2022-08-31T11:58:26.183Z,19.40
2022-08-31T12:03:11.742Z,19.20
2022-08-31T12:07:55.800Z,19.50
2022-08-31T12:13:03.608Z,19.80
2022-08-31T12:17:58.833Z,20.20
2022-08-31T12:23:36.631Z,20.30
2022-08-31T12:28:31.944Z,20.20
2022-08-31T12:33:19.716Z,20.60
2022-08-31T12:38:07.135Z,20.60
2022-08-31T12:43:10.326Z,20.50
2022-08-31T12:48:04.066Z,20.50
2022-08-31T12:53:10.536Z,20.70
2022-08-31T12:58:15.604Z,20.80
2022-08-31T13:03:02.744Z,20.40
2022-08-31T13:07:46.293Z,20.30
2022-08-31T13:12:31.482Z,20.60
2022-08-31T13:17:18.185Z,20.40
2022-08-31T13:22:05.553Z,20.30
2022-08-31T13:27:04.907Z,20.20
2022-08-31T13:31:52.912Z,20.20
2022-08-31T13:36:41.582Z,20.20
2022-08-31T13:41:28.980Z,20.40
2022-08-31T13:46:12.511Z,20.40
2022-08-31T13:51:07.411Z,20.30
2022-08-31T13:55:51.000Z,20.60
2022-08-31T14:00:42.261Z,20.80
2022-08-31T14:05:32.029Z,21.40
2022-08-31T14:10:21.599Z,21.60
2022-08-31T14:15:36.557Z,21.50
2022-08-31T14:20:36.775Z,22.80
2022-08-31T14:25:22.351Z,25.90
2022-08-31T14:30:07.067Z,24.50
2022-08-31T14:34:51.302Z,24.00
2022-08-31T14:39:37.366Z,23.50
2022-08-31T14:44:26.204Z,23.20
2022-08-31T14:49:11.082Z,22.70
2022-08-31T14:53:57.073Z,22.60
2022-08-31T14:58:42.300Z,22.00
2022-08-31T15:03:28.375Z,21.80
2022-08-31T15:08:12.435Z,21.50
2022-08-31T15:12:57.276Z,21.50
2022-08-31T15:17:41.849Z,21.60
2022-08-31T15:22:27.423Z,21.40
2022-08-31T15:27:13.123Z,21.20
2022-08-31T15:31:57.584Z,21.00
2022-08-31T15:36:41.108Z,20.90
2022-08-31T15:41:29.654Z,20.90
2022-08-31T15:46:14.261Z,20.80
2022-08-31T15:51:00.770Z,20.70
2022-08-31T15:55:45.021Z,20.70
2022-08-31T16:00:36.535Z,20.70
2022-08-31T16:05:20.565Z,20.70
2022-08-31T16:10:11.257Z,20.80
2022-08-31T16:14:55.663Z,20.80
2022-08-31T16:19:41.345Z,20.80
2022-08-31T16:24:25.917Z,20.90
2022-08-31T16:29:13.188Z,21.10
2022-08-31T16:33:56.796Z,20.80
2022-08-31T16:38:41.714Z,20.60
2022-08-31T16:43:25.198Z,20.40
2022-08-31T16:48:27.753Z,20.30
2022-08-31T16:53:18.463Z,20.20
2022-08-31T16:58:03.433Z,20.20
2022-08-31T17:02:47.334Z,20.20
2022-08-31T17:07:30.956Z,20.20
2022-08-31T17:12:17.356Z,20.20
2022-08-31T17:17:03.839Z,20.20
2022-08-31T17:21:53.164Z,20.00
2022-08-31T17:26:36.671Z,19.80
2022-08-31T17:31:20.687Z,19.60
2022-08-31T17:36:08.725Z,19.40
2022-08-31T17:40:52.343Z,19.30
2022-08-31T17:45:37.169Z,19.30
2022-08-31T17:50:21.477Z,19.10
2022-08-31T17:55:07.941Z,19.00
2022-08-31T17:59:51.477Z,18.90
2022-08-31T18:04:36.431Z,18.90
2022-08-31T18:09:30.226Z,18.70
2022-08-31T18:14:16.174Z,18.60
2022-08-31T18:19:00.599Z,18.50
2022-08-31T18:23:44.569Z,18.50
2022-08-31T18:28:28.059Z,18.40
2022-08-31T18:33:15.087Z,18.30
2022-08-31T18:37:59.986Z,18.20
2022-08-31T18:43:01.302Z,18.10
2022-08-31T18:48:01.685Z,17.90
2022-08-31T18:52:53.609Z,17.80
2022-08-31T18:57:48.586Z,17.60
2022-08-31T19:02:33.732Z,17.50
2022-08-31T19:07:17.842Z,17.30
2022-08-31T19:12:04.573Z,17.10
2022-08-31T19:16:51.476Z,17.00
2022-08-31T19:21:47.454Z,16.90
2022-08-31T19:26:33.743Z,16.90
2022-08-31T19:31:20.969Z,16.80
2022-08-31T19:36:06.144Z,16.80
2022-08-31T19:40:50.287Z,16.80
2022-08-31T19:45:43.608Z,16.80
2022-08-31T19:50:31.046Z,16.80
2022-08-31T19:55:15.220Z,16.70
2022-08-31T19:59:59.475Z,16.50
2022-08-31T20:04:43.051Z,16.40
2022-08-31T20:09:28.611Z,16.30
2022-08-31T20:14:13.623Z,16.20
2022-08-31T20:18:57.917Z,16.10
2022-08-31T20:23:42.308Z,16.10
2022-08-31T20:28:27.593Z,16.00
2022-08-31T20:33:12.686Z,15.80
2022-08-31T20:37:57.609Z,15.70
2022-08-31T20:42:42.718Z,15.60
2022-08-31T20:47:45.542Z,15.50
2022-08-31T20:52:30.719Z,15.50
2022-08-31T20:57:15.361Z,15.40
2022-08-31T21:02:04.325Z,15.40
2022-08-31T21:06:49.593Z,15.40
2022-08-31T21:11:37.038Z,15.40
2022-08-31T21:16:22.070Z,15.30
2022-08-31T21:21:08.446Z,15.30
2022-08-31T21:25:55.664Z,15.20
2022-08-31T21:30:40.119Z,15.10
2022-08-31T21:35:24.231Z,15.10
2022-08-31T21:40:10.507Z,15.00
2022-08-31T21:44:55.418Z,14.90
2022-08-31T21:49:39.981Z,14.80
2022-08-31T21:54:26.337Z,14.80
2022-08-31T21:59:09.883Z,14.70
2022-08-31T22:03:59.446Z,14.70
2022-08-31T22:08:43.178Z,14.60
2022-08-31T22:13:31.413Z,14.60
2022-08-31T22:18:59.252Z,14.50
2022-08-31T22:23:23.313Z,14.50
2022-08-31T22:28:07.632Z,14.40
2022-08-31T22:32:51.377Z,14.40
2022-08-31T22:37:35.498Z,14.40
2022-08-31T22:42:21.313Z,14.30
2022-08-31T22:47:05.956Z,14.30
2022-08-31T22:51:49.720Z,14.30
2022-08-31T22:56:35.448Z,14.30
2022-08-31T23:01:23.465Z,14.20
2022-08-31T23:06:07.288Z,14.10
2022-08-31T23:10:51.091Z,14.10
2022-08-31T23:15:36.665Z,14.00
2022-08-31T23:20:24.603Z,14.00
2022-08-31T23:25:10.808Z,14.00
2022-08-31T23:29:56.840Z,14.00
2022-08-31T23:34:41.909Z,14.00
2022-08-31T23:39:27.398Z,14.00
2022-08-31T23:44:11.380Z,13.90
2022-08-31T23:48:55.520Z,13.90
2022-08-31T23:53:39.404Z,13.90
2022-08-31T23:58:25.943Z,13.80
